sensor_id;sensor_type;location;lat;lon;timestamp;P1;durP1;ratioP1;P2;durP2;ratioP2
10825;SDS011;5466;55.898;14.094;2023-12-20T00:00:25;17.90;;;3.17;;
10825;SDS011;5466;55.898;14.094;2023-12-20T00:02:25;16.40;;;3.37;;
10825;SDS011;5466;55.898;14.094;2023-12-20T00:04:26;13.87;;;3.37;;
10825;SDS011;5466;55.898;14.094;2023-12-20T00:06:27;16.70;;;4.00;;
10825;SDS011;5466;55.898;14.094;2023-12-20T00:08:27;11.23;;;2.83;;
10825;SDS011;5466;55.898;14.094;2023-12-20T00:10:28;7.23;;;2.87;;
10825;SDS011;5466;55.898;14.094;2023-12-20T00:12:28;15.37;;;3.30;;
10825;SDS011;5466;55.898;14.094;2023-12-20T00:14:29;17.40;;;2.83;;
10825;SDS011;5466;55.898;14.094;2023-12-20T00:16:29;15.40;;;2.70;;
10825;SDS011;5466;55.898;14.094;2023-12-20T00:18:31;11.00;;;2.95;;
10825;SDS011;5466;55.898;14.094;2023-12-20T00:20:32;10.53;;;3.13;;
10825;SDS011;5466;55.898;14.094;2023-12-20T00:22:33;14.35;;;4.45;;
10825;SDS011;5466;55.898;14.094;2023-12-20T00:24:33;12.30;;;3.90;;
10825;SDS011;5466;55.898;14.094;2023-12-20T00:26:34;14.48;;;3.00;;
10825;SDS011;5466;55.898;14.094;2023-12-20T00:28:34;14.25;;;3.25;;
10825;SDS011;5466;55.898;14.094;2023-12-20T00:30:35;18.80;;;3.28;;
10825;SDS011;5466;55.898;14.094;2023-12-20T00:32:36;12.88;;;3.83;;
10825;SDS011;5466;55.898;14.094;2023-12-20T00:34:36;14.77;;;3.55;;
10825;SDS011;5466;55.898;14.094;2023-12-20T00:36:37;10.05;;;2.65;;
10825;SDS011;5466;55.898;14.094;2023-12-20T00:38:38;14.52;;;2.90;;
10825;SDS011;5466;55.898;14.094;2023-12-20T00:40:38;10.30;;;2.65;;
10825;SDS011;5466;55.898;14.094;2023-12-20T00:42:40;16.38;;;2.90;;
10825;SDS011;5466;55.898;14.094;2023-12-20T00:44:41;10.57;;;3.22;;
10825;SDS011;5466;55.898;14.094;2023-12-20T00:46:41;13.02;;;3.40;;
10825;SDS011;5466;55.898;14.094;2023-12-20T00:48:42;16.80;;;2.60;;
10825;SDS011;5466;55.898;14.094;2023-12-20T00:50:43;10.50;;;3.05;;
10825;SDS011;5466;55.898;14.094;2023-12-20T00:52:44;12.82;;;2.60;;
10825;SDS011;5466;55.898;14.094;2023-12-20T00:54:45;4.80;;;2.50;;
10825;SDS011;5466;55.898;14.094;2023-12-20T00:56:45;15.63;;;2.72;;
10825;SDS011;5466;55.898;14.094;2023-12-20T00:58:46;10.50;;;2.72;;
10825;SDS011;5466;55.898;14.094;2023-12-20T01:00:47;11.30;;;2.97;;
10825;SDS011;5466;55.898;14.094;2023-12-20T01:02:48;11.23;;;2.75;;
10825;SDS011;5466;55.898;14.094;2023-12-20T01:04:49;11.70;;;2.47;;
10825;SDS011;5466;55.898;14.094;2023-12-20T01:06:50;12.65;;;2.40;;
10825;SDS011;5466;55.898;14.094;2023-12-20T01:08:51;15.00;;;2.60;;
10825;SDS011;5466;55.898;14.094;2023-12-20T01:10:52;12.48;;;2.33;;
10825;SDS011;5466;55.898;14.094;2023-12-20T01:12:52;10.73;;;2.63;;
10825;SDS011;5466;55.898;14.094;2023-12-20T01:14:53;10.48;;;2.72;;
10825;SDS011;5466;55.898;14.094;2023-12-20T01:16:54;12.30;;;3.05;;
10825;SDS011;5466;55.898;14.094;2023-12-20T01:18:54;11.98;;;2.92;;
10825;SDS011;5466;55.898;14.094;2023-12-20T01:20:55;8.43;;;2.35;;
10825;SDS011;5466;55.898;14.094;2023-12-20T01:22:56;9.65;;;2.88;;
10825;SDS011;5466;55.898;14.094;2023-12-20T01:24:56;12.68;;;2.97;;
10825;SDS011;5466;55.898;14.094;2023-12-20T01:26:57;8.13;;;2.35;;
10825;SDS011;5466;55.898;14.094;2023-12-20T01:28:58;12.35;;;2.92;;
10825;SDS011;5466;55.898;14.094;2023-12-20T01:31:01;10.88;;;2.50;;
10825;SDS011;5466;55.898;14.094;2023-12-20T01:33:01;11.90;;;2.35;;
10825;SDS011;5466;55.898;14.094;2023-12-20T01:35:02;10.20;;;2.50;;
10825;SDS011;5466;55.898;14.094;2023-12-20T01:37:03;11.83;;;2.77;;
10825;SDS011;5466;55.898;14.094;2023-12-20T01:39:04;12.30;;;2.70;;
10825;SDS011;5466;55.898;14.094;2023-12-20T01:41:04;11.05;;;2.97;;
10825;SDS011;5466;55.898;14.094;2023-12-20T01:43:08;7.30;;;2.75;;
10825;SDS011;5466;55.898;14.094;2023-12-20T01:45:09;5.13;;;2.47;;
10825;SDS011;5466;55.898;14.094;2023-12-20T01:47:10;15.98;;;3.10;;
10825;SDS011;5466;55.898;14.094;2023-12-20T01:49:11;10.68;;;2.97;;
10825;SDS011;5466;55.898;14.094;2023-12-20T01:51:11;8.05;;;2.40;;
10825;SDS011;5466;55.898;14.094;2023-12-20T01:53:12;10.63;;;2.35;;
10825;SDS011;5466;55.898;14.094;2023-12-20T01:55:13;9.68;;;3.28;;
10825;SDS011;5466;55.898;14.094;2023-12-20T01:57:15;13.07;;;4.18;;
10825;SDS011;5466;55.898;14.094;2023-12-20T01:59:17;9.40;;;2.70;;
10825;SDS011;5466;55.898;14.094;2023-12-20T02:01:20;12.65;;;3.15;;
10825;SDS011;5466;55.898;14.094;2023-12-20T02:03:21;6.43;;;2.60;;
10825;SDS011;5466;55.898;14.094;2023-12-20T02:05:22;10.10;;;2.90;;
10825;SDS011;5466;55.898;14.094;2023-12-20T02:07:23;10.48;;;3.17;;
10825;SDS011;5466;55.898;14.094;2023-12-20T02:09:24;8.65;;;3.00;;
10825;SDS011;5466;55.898;14.094;2023-12-20T02:11:26;14.32;;;3.45;;
10825;SDS011;5466;55.898;14.094;2023-12-20T02:13:26;13.18;;;2.83;;
10825;SDS011;5466;55.898;14.094;2023-12-20T02:15:27;9.77;;;2.75;;
10825;SDS011;5466;55.898;14.094;2023-12-20T02:17:27;14.13;;;3.10;;
10825;SDS011;5466;55.898;14.094;2023-12-20T02:19:29;11.65;;;2.75;;
10825;SDS011;5466;55.898;14.094;2023-12-20T02:21:32;11.82;;;3.10;;
10825;SDS011;5466;55.898;14.094;2023-12-20T02:23:33;9.73;;;3.05;;
10825;SDS011;5466;55.898;14.094;2023-12-20T02:25:34;21.33;;;4.00;;
10825;SDS011;5466;55.898;14.094;2023-12-20T02:27:35;15.52;;;3.40;;
10825;SDS011;5466;55.898;14.094;2023-12-20T02:29:36;7.63;;;2.97;;
10825;SDS011;5466;55.898;14.094;2023-12-20T02:31:36;12.98;;;3.70;;
10825;SDS011;5466;55.898;14.094;2023-12-20T02:33:37;12.68;;;3.58;;
10825;SDS011;5466;55.898;14.094;2023-12-20T02:35:39;8.57;;;4.00;;
10825;SDS011;5466;55.898;14.094;2023-12-20T02:37:40;10.52;;;4.03;;
10825;SDS011;5466;55.898;14.094;2023-12-20T02:39:40;15.20;;;4.28;;
10825;SDS011;5466;55.898;14.094;2023-12-20T02:41:41;12.18;;;4.32;;
10825;SDS011;5466;55.898;14.094;2023-12-20T02:43:41;15.40;;;4.30;;
10825;SDS011;5466;55.898;14.094;2023-12-20T02:45:42;13.70;;;4.25;;
10825;SDS011;5466;55.898;14.094;2023-12-20T02:47:43;13.93;;;5.18;;
10825;SDS011;5466;55.898;14.094;2023-12-20T02:49:43;14.75;;;4.78;;
10825;SDS011;5466;55.898;14.094;2023-12-20T02:51:44;20.50;;;4.97;;
10825;SDS011;5466;55.898;14.094;2023-12-20T02:53:44;12.02;;;5.10;;
10825;SDS011;5466;55.898;14.094;2023-12-20T02:55:45;14.95;;;5.50;;
10825;SDS011;5466;55.898;14.094;2023-12-20T02:57:46;12.05;;;5.38;;
10825;SDS011;5466;55.898;14.094;2023-12-20T02:59:46;18.90;;;5.15;;
10825;SDS011;5466;55.898;14.094;2023-12-20T03:01:47;13.77;;;5.30;;
10825;SDS011;5466;55.898;14.094;2023-12-20T03:03:48;12.32;;;5.63;;
10825;SDS011;5466;55.898;14.094;2023-12-20T03:05:48;12.77;;;5.07;;
10825;SDS011;5466;55.898;14.094;2023-12-20T03:07:49;14.98;;;5.30;;
10825;SDS011;5466;55.898;14.094;2023-12-20T03:09:49;15.82;;;4.78;;
10825;SDS011;5466;55.898;14.094;2023-12-20T03:11:50;11.93;;;4.60;;
10825;SDS011;5466;55.898;14.094;2023-12-20T03:13:50;10.93;;;4.32;;
10825;SDS011;5466;55.898;14.094;2023-12-20T03:15:51;15.25;;;5.15;;
10825;SDS011;5466;55.898;14.094;2023-12-20T03:17:52;12.88;;;4.55;;
10825;SDS011;5466;55.898;14.094;2023-12-20T03:19:52;18.48;;;4.57;;
10825;SDS011;5466;55.898;14.094;2023-12-20T03:21:53;16.05;;;4.75;;
10825;SDS011;5466;55.898;14.094;2023-12-20T03:23:53;16.95;;;4.72;;
10825;SDS011;5466;55.898;14.094;2023-12-20T03:25:54;17.40;;;4.47;;
10825;SDS011;5466;55.898;14.094;2023-12-20T03:27:55;18.48;;;4.32;;
10825;SDS011;5466;55.898;14.094;2023-12-20T03:29:55;13.77;;;4.63;;
10825;SDS011;5466;55.898;14.094;2023-12-20T03:31:56;11.80;;;3.90;;
10825;SDS011;5466;55.898;14.094;2023-12-20T03:33:56;14.68;;;4.18;;
10825;SDS011;5466;55.898;14.094;2023-12-20T03:35:57;13.65;;;3.83;;
10825;SDS011;5466;55.898;14.094;2023-12-20T03:37:58;12.57;;;4.47;;
10825;SDS011;5466;55.898;14.094;2023-12-20T03:40:00;15.38;;;4.75;;
10825;SDS011;5466;55.898;14.094;2023-12-20T03:42:01;11.25;;;3.97;;
10825;SDS011;5466;55.898;14.094;2023-12-20T03:44:01;15.00;;;4.25;;
10825;SDS011;5466;55.898;14.094;2023-12-20T03:46:02;15.85;;;4.32;;
10825;SDS011;5466;55.898;14.094;2023-12-20T03:48:04;15.48;;;4.25;;
10825;SDS011;5466;55.898;14.094;2023-12-20T03:50:05;12.52;;;3.65;;
10825;SDS011;5466;55.898;14.094;2023-12-20T03:52:06;12.70;;;4.30;;
10825;SDS011;5466;55.898;14.094;2023-12-20T03:54:07;10.68;;;4.00;;
10825;SDS011;5466;55.898;14.094;2023-12-20T03:56:08;13.68;;;4.97;;
10825;SDS011;5466;55.898;14.094;2023-12-20T03:58:08;15.15;;;4.43;;
10825;SDS011;5466;55.898;14.094;2023-12-20T04:00:09;10.77;;;3.95;;
10825;SDS011;5466;55.898;14.094;2023-12-20T04:02:11;13.80;;;3.78;;
10825;SDS011;5466;55.898;14.094;2023-12-20T04:04:12;16.63;;;3.85;;
10825;SDS011;5466;55.898;14.094;2023-12-20T04:06:19;19.63;;;4.43;;
10825;SDS011;5466;55.898;14.094;2023-12-20T04:08:20;8.85;;;4.05;;
10825;SDS011;5466;55.898;14.094;2023-12-20T04:10:21;11.20;;;4.18;;
10825;SDS011;5466;55.898;14.094;2023-12-20T04:12:21;13.50;;;3.78;;
10825;SDS011;5466;55.898;14.094;2023-12-20T04:14:22;16.02;;;4.97;;
10825;SDS011;5466;55.898;14.094;2023-12-20T04:16:23;9.20;;;4.05;;
10825;SDS011;5466;55.898;14.094;2023-12-20T04:18:23;17.83;;;4.03;;
10825;SDS011;5466;55.898;14.094;2023-12-20T04:20:24;11.98;;;3.80;;
10825;SDS011;5466;55.898;14.094;2023-12-20T04:22:24;12.55;;;3.50;;
10825;SDS011;5466;55.898;14.094;2023-12-20T04:24:25;16.00;;;3.70;;
10825;SDS011;5466;55.898;14.094;2023-12-20T04:26:26;13.52;;;4.13;;
10825;SDS011;5466;55.898;14.094;2023-12-20T04:28:26;17.23;;;4.22;;
10825;SDS011;5466;55.898;14.094;2023-12-20T04:30:30;18.00;;;4.28;;
10825;SDS011;5466;55.898;14.094;2023-12-20T04:32:30;12.35;;;3.15;;
10825;SDS011;5466;55.898;14.094;2023-12-20T04:34:31;15.32;;;3.05;;
10825;SDS011;5466;55.898;14.094;2023-12-20T04:36:32;14.13;;;3.47;;
10825;SDS011;5466;55.898;14.094;2023-12-20T04:38:33;12.05;;;3.88;;
10825;SDS011;5466;55.898;14.094;2023-12-20T04:40:33;10.88;;;2.60;;
10825;SDS011;5466;55.898;14.094;2023-12-20T04:42:34;12.77;;;3.17;;
10825;SDS011;5466;55.898;14.094;2023-12-20T04:44:34;14.45;;;3.22;;
10825;SDS011;5466;55.898;14.094;2023-12-20T04:46:35;10.00;;;3.40;;
10825;SDS011;5466;55.898;14.094;2023-12-20T04:48:36;13.18;;;3.13;;
10825;SDS011;5466;55.898;14.094;2023-12-20T04:50:37;12.60;;;3.28;;
10825;SDS011;5466;55.898;14.094;2023-12-20T04:52:37;19.02;;;3.95;;
10825;SDS011;5466;55.898;14.094;2023-12-20T04:54:38;11.95;;;2.95;;
10825;SDS011;5466;55.898;14.094;2023-12-20T04:56:38;10.70;;;3.22;;
10825;SDS011;5466;55.898;14.094;2023-12-20T04:58:39;8.27;;;2.58;;
10825;SDS011;5466;55.898;14.094;2023-12-20T05:00:40;16.45;;;3.47;;
10825;SDS011;5466;55.898;14.094;2023-12-20T05:02:41;9.77;;;2.75;;
10825;SDS011;5466;55.898;14.094;2023-12-20T05:04:41;16.30;;;3.38;;
10825;SDS011;5466;55.898;14.094;2023-12-20T05:06:42;15.15;;;3.78;;
10825;SDS011;5466;55.898;14.094;2023-12-20T05:08:43;15.68;;;4.00;;
10825;SDS011;5466;55.898;14.094;2023-12-20T05:10:43;15.95;;;3.05;;
10825;SDS011;5466;55.898;14.094;2023-12-20T05:12:44;16.40;;;3.75;;
10825;SDS011;5466;55.898;14.094;2023-12-20T05:14:45;14.05;;;3.22;;
10825;SDS011;5466;55.898;14.094;2023-12-20T05:16:46;18.90;;;3.38;;
10825;SDS011;5466;55.898;14.094;2023-12-20T05:18:47;13.63;;;3.10;;
10825;SDS011;5466;55.898;14.094;2023-12-20T05:20:50;15.93;;;3.65;;
10825;SDS011;5466;55.898;14.094;2023-12-20T05:22:53;16.65;;;3.22;;
10825;SDS011;5466;55.898;14.094;2023-12-20T05:24:53;11.05;;;3.22;;
10825;SDS011;5466;55.898;14.094;2023-12-20T05:26:54;10.00;;;3.10;;
10825;SDS011;5466;55.898;14.094;2023-12-20T05:28:55;8.88;;;2.55;;
10825;SDS011;5466;55.898;14.094;2023-12-20T05:30:55;15.68;;;2.97;;
10825;SDS011;5466;55.898;14.094;2023-12-20T05:32:56;13.38;;;3.13;;
10825;SDS011;5466;55.898;14.094;2023-12-20T05:34:57;16.25;;;3.55;;
10825;SDS011;5466;55.898;14.094;2023-12-20T05:36:57;15.10;;;3.17;;
10825;SDS011;5466;55.898;14.094;2023-12-20T05:38:58;8.90;;;3.15;;
10825;SDS011;5466;55.898;14.094;2023-12-20T05:40:59;8.55;;;2.42;;
10825;SDS011;5466;55.898;14.094;2023-12-20T05:42:59;14.68;;;2.95;;
10825;SDS011;5466;55.898;14.094;2023-12-20T05:45:00;14.48;;;3.08;;
10825;SDS011;5466;55.898;14.094;2023-12-20T05:47:00;13.20;;;2.75;;
10825;SDS011;5466;55.898;14.094;2023-12-20T05:49:01;15.20;;;4.07;;
10825;SDS011;5466;55.898;14.094;2023-12-20T05:51:02;15.23;;;3.05;;
10825;SDS011;5466;55.898;14.094;2023-12-20T05:53:03;8.38;;;3.35;;
10825;SDS011;5466;55.898;14.094;2023-12-20T05:55:04;11.85;;;2.72;;
10825;SDS011;5466;55.898;14.094;2023-12-20T05:57:04;10.27;;;3.20;;
10825;SDS011;5466;55.898;14.094;2023-12-20T05:59:05;8.82;;;2.83;;
10825;SDS011;5466;55.898;14.094;2023-12-20T06:01:06;15.18;;;3.90;;
10825;SDS011;5466;55.898;14.094;2023-12-20T06:03:08;9.07;;;2.67;;
10825;SDS011;5466;55.898;14.094;2023-12-20T06:05:09;16.45;;;3.15;;
10825;SDS011;5466;55.898;14.094;2023-12-20T06:07:13;10.70;;;3.10;;
10825;SDS011;5466;55.898;14.094;2023-12-20T06:09:14;9.95;;;3.03;;
10825;SDS011;5466;55.898;14.094;2023-12-20T06:11:15;11.00;;;4.03;;
10825;SDS011;5466;55.898;14.094;2023-12-20T06:13:16;19.50;;;3.75;;
10825;SDS011;5466;55.898;14.094;2023-12-20T06:15:16;13.50;;;3.25;;
10825;SDS011;5466;55.898;14.094;2023-12-20T06:17:17;11.68;;;3.00;;
10825;SDS011;5466;55.898;14.094;2023-12-20T06:19:18;11.10;;;3.45;;
10825;SDS011;5466;55.898;14.094;2023-12-20T06:21:18;14.27;;;3.45;;
10825;SDS011;5466;55.898;14.094;2023-12-20T06:23:20;11.93;;;5.63;;
10825;SDS011;5466;55.898;14.094;2023-12-20T06:25:20;14.82;;;3.25;;
10825;SDS011;5466;55.898;14.094;2023-12-20T06:27:21;15.70;;;4.90;;
10825;SDS011;5466;55.898;14.094;2023-12-20T06:29:21;18.17;;;4.55;;
10825;SDS011;5466;55.898;14.094;2023-12-20T06:31:22;16.45;;;4.20;;
10825;SDS011;5466;55.898;14.094;2023-12-20T06:33:23;11.98;;;4.00;;
10825;SDS011;5466;55.898;14.094;2023-12-20T06:35:24;12.15;;;3.75;;
10825;SDS011;5466;55.898;14.094;2023-12-20T06:37:24;10.07;;;2.53;;
10825;SDS011;5466;55.898;14.094;2023-12-20T06:39:25;6.78;;;1.65;;
10825;SDS011;5466;55.898;14.094;2023-12-20T06:41:25;5.25;;;2.47;;
10825;SDS011;5466;55.898;14.094;2023-12-20T06:43:29;9.60;;;2.58;;
10825;SDS011;5466;55.898;14.094;2023-12-20T06:45:31;6.28;;;2.50;;
10825;SDS011;5466;55.898;14.094;2023-12-20T06:47:31;6.65;;;2.30;;
10825;SDS011;5466;55.898;14.094;2023-12-20T06:49:32;7.22;;;2.55;;
10825;SDS011;5466;55.898;14.094;2023-12-20T06:51:33;7.93;;;2.15;;
10825;SDS011;5466;55.898;14.094;2023-12-20T06:53:33;9.38;;;2.88;;
10825;SDS011;5466;55.898;14.094;2023-12-20T06:55:37;8.27;;;2.17;;
10825;SDS011;5466;55.898;14.094;2023-12-20T06:57:38;6.35;;;2.22;;
10825;SDS011;5466;55.898;14.094;2023-12-20T06:59:42;5.13;;;2.13;;
10825;SDS011;5466;55.898;14.094;2023-12-20T07:01:42;4.72;;;2.05;;
10825;SDS011;5466;55.898;14.094;2023-12-20T07:03:48;5.25;;;2.03;;
10825;SDS011;5466;55.898;14.094;2023-12-20T07:05:48;7.38;;;2.53;;
10825;SDS011;5466;55.898;14.094;2023-12-20T07:07:49;7.18;;;1.92;;
10825;SDS011;5466;55.898;14.094;2023-12-20T07:09:49;5.80;;;2.13;;
10825;SDS011;5466;55.898;14.094;2023-12-20T07:11:50;6.07;;;2.30;;
10825;SDS011;5466;55.898;14.094;2023-12-20T07:13:51;6.97;;;2.17;;
10825;SDS011;5466;55.898;14.094;2023-12-20T07:15:51;6.22;;;2.40;;
10825;SDS011;5466;55.898;14.094;2023-12-20T07:17:52;9.95;;;2.42;;
10825;SDS011;5466;55.898;14.094;2023-12-20T07:19:53;9.70;;;2.22;;
10825;SDS011;5466;55.898;14.094;2023-12-20T07:21:54;4.47;;;2.05;;
10825;SDS011;5466;55.898;14.094;2023-12-20T07:23:55;8.55;;;1.88;;
10825;SDS011;5466;55.898;14.094;2023-12-20T07:25:55;6.07;;;2.22;;
10825;SDS011;5466;55.898;14.094;2023-12-20T07:27:56;5.70;;;1.80;;
10825;SDS011;5466;55.898;14.094;2023-12-20T07:29:59;12.30;;;2.55;;
10825;SDS011;5466;55.898;14.094;2023-12-20T07:32:00;3.30;;;1.70;;
10825;SDS011;5466;55.898;14.094;2023-12-20T07:34:01;3.08;;;1.75;;
10825;SDS011;5466;55.898;14.094;2023-12-20T07:36:01;5.53;;;1.88;;
10825;SDS011;5466;55.898;14.094;2023-12-20T07:38:02;6.35;;;2.30;;
10825;SDS011;5466;55.898;14.094;2023-12-20T07:40:03;5.88;;;1.80;;
10825;SDS011;5466;55.898;14.094;2023-12-20T07:42:04;6.57;;;2.10;;
10825;SDS011;5466;55.898;14.094;2023-12-20T07:44:05;3.72;;;2.20;;
10825;SDS011;5466;55.898;14.094;2023-12-20T07:46:07;7.70;;;1.70;;
10825;SDS011;5466;55.898;14.094;2023-12-20T07:48:08;4.03;;;2.00;;
10825;SDS011;5466;55.898;14.094;2023-12-20T07:50:09;4.55;;;1.73;;
10825;SDS011;5466;55.898;14.094;2023-12-20T07:52:10;7.85;;;2.00;;
10825;SDS011;5466;55.898;14.094;2023-12-20T07:54:10;4.95;;;2.22;;
10825;SDS011;5466;55.898;14.094;2023-12-20T07:56:15;4.30;;;1.88;;
10825;SDS011;5466;55.898;14.094;2023-12-20T07:58:16;3.03;;;2.17;;
10825;SDS011;5466;55.898;14.094;2023-12-20T08:00:17;9.80;;;2.03;;
10825;SDS011;5466;55.898;14.094;2023-12-20T08:02:18;7.85;;;2.30;;
10825;SDS011;5466;55.898;14.094;2023-12-20T08:04:18;6.57;;;2.97;;
10825;SDS011;5466;55.898;14.094;2023-12-20T08:06:19;7.07;;;2.92;;
10825;SDS011;5466;55.898;14.094;2023-12-20T08:08:20;4.95;;;2.30;;
10825;SDS011;5466;55.898;14.094;2023-12-20T08:10:20;9.38;;;2.67;;
10825;SDS011;5466;55.898;14.094;2023-12-20T08:12:21;9.48;;;2.63;;
10825;SDS011;5466;55.898;14.094;2023-12-20T08:14:22;4.35;;;1.80;;
10825;SDS011;5466;55.898;14.094;2023-12-20T08:16:23;5.60;;;2.25;;
10825;SDS011;5466;55.898;14.094;2023-12-20T08:18:23;9.63;;;2.40;;
10825;SDS011;5466;55.898;14.094;2023-12-20T08:20:24;2.85;;;2.08;;
10825;SDS011;5466;55.898;14.094;2023-12-20T08:22:25;5.97;;;2.40;;
10825;SDS011;5466;55.898;14.094;2023-12-20T08:24:25;13.40;;;3.03;;
10825;SDS011;5466;55.898;14.094;2023-12-20T08:26:26;10.00;;;2.58;;
10825;SDS011;5466;55.898;14.094;2023-12-20T08:28:27;14.07;;;2.75;;
10825;SDS011;5466;55.898;14.094;2023-12-20T08:30:27;9.25;;;2.92;;
10825;SDS011;5466;55.898;14.094;2023-12-20T08:32:28;8.10;;;2.60;;
10825;SDS011;5466;55.898;14.094;2023-12-20T08:34:29;6.85;;;2.60;;
10825;SDS011;5466;55.898;14.094;2023-12-20T08:36:29;7.60;;;3.63;;
10825;SDS011;5466;55.898;14.094;2023-12-20T08:38:30;5.70;;;2.47;;
10825;SDS011;5466;55.898;14.094;2023-12-20T08:40:30;7.70;;;2.17;;
10825;SDS011;5466;55.898;14.094;2023-12-20T08:42:31;8.10;;;2.88;;
10825;SDS011;5466;55.898;14.094;2023-12-20T08:44:31;5.70;;;2.03;;
10825;SDS011;5466;55.898;14.094;2023-12-20T08:46:32;13.60;;;2.33;;
10825;SDS011;5466;55.898;14.094;2023-12-20T08:48:33;7.47;;;2.67;;
10825;SDS011;5466;55.898;14.094;2023-12-20T08:50:33;6.20;;;2.20;;
10825;SDS011;5466;55.898;14.094;2023-12-20T08:52:34;7.15;;;2.25;;
10825;SDS011;5466;55.898;14.094;2023-12-20T08:54:35;5.25;;;2.58;;
10825;SDS011;5466;55.898;14.094;2023-12-20T08:56:35;3.97;;;1.98;;
10825;SDS011;5466;55.898;14.094;2023-12-20T08:58:36;8.85;;;2.53;;
10825;SDS011;5466;55.898;14.094;2023-12-20T09:00:37;8.13;;;2.20;;
10825;SDS011;5466;55.898;14.094;2023-12-20T09:02:38;6.35;;;2.00;;
10825;SDS011;5466;55.898;14.094;2023-12-20T09:04:39;6.97;;;2.40;;
10825;SDS011;5466;55.898;14.094;2023-12-20T09:06:40;3.72;;;1.77;;
10825;SDS011;5466;55.898;14.094;2023-12-20T09:08:40;4.72;;;1.80;;
10825;SDS011;5466;55.898;14.094;2023-12-20T09:10:41;5.03;;;1.90;;
10825;SDS011;5466;55.898;14.094;2023-12-20T09:12:42;2.60;;;1.60;;
10825;SDS011;5466;55.898;14.094;2023-12-20T09:14:42;5.88;;;2.25;;
10825;SDS011;5466;55.898;14.094;2023-12-20T09:16:43;2.47;;;1.65;;
10825;SDS011;5466;55.898;14.094;2023-12-20T09:18:44;3.38;;;1.95;;
10825;SDS011;5466;55.898;14.094;2023-12-20T09:20:44;3.75;;;2.08;;
10825;SDS011;5466;55.898;14.094;2023-12-20T09:22:45;4.97;;;1.63;;
10825;SDS011;5466;55.898;14.094;2023-12-20T09:24:45;3.80;;;1.80;;
10825;SDS011;5466;55.898;14.094;2023-12-20T09:26:46;4.25;;;1.90;;
10825;SDS011;5466;55.898;14.094;2023-12-20T09:28:47;3.35;;;1.60;;
10825;SDS011;5466;55.898;14.094;2023-12-20T09:30:47;3.85;;;1.70;;
10825;SDS011;5466;55.898;14.094;2023-12-20T09:32:48;3.70;;;1.52;;
10825;SDS011;5466;55.898;14.094;2023-12-20T09:34:49;5.00;;;1.80;;
10825;SDS011;5466;55.898;14.094;2023-12-20T09:36:49;4.20;;;1.73;;
10825;SDS011;5466;55.898;14.094;2023-12-20T09:38:50;2.15;;;1.23;;
10825;SDS011;5466;55.898;14.094;2023-12-20T09:40:53;3.42;;;1.45;;
10825;SDS011;5466;55.898;14.094;2023-12-20T09:42:58;4.57;;;1.30;;
10825;SDS011;5466;55.898;14.094;2023-12-20T09:45:10;4.10;;;1.50;;
10825;SDS011;5466;55.898;14.094;2023-12-20T09:47:18;2.03;;;1.40;;
10825;SDS011;5466;55.898;14.094;2023-12-20T09:49:22;3.85;;;1.40;;
10825;SDS011;5466;55.898;14.094;2023-12-20T09:51:22;2.88;;;1.40;;
10825;SDS011;5466;55.898;14.094;2023-12-20T09:53:24;4.53;;;1.48;;
10825;SDS011;5466;55.898;14.094;2023-12-20T09:55:29;4.53;;;1.83;;
10825;SDS011;5466;55.898;14.094;2023-12-20T09:57:32;2.92;;;1.65;;
10825;SDS011;5466;55.898;14.094;2023-12-20T09:59:32;2.67;;;1.58;;
10825;SDS011;5466;55.898;14.094;2023-12-20T10:01:33;3.45;;;1.60;;
10825;SDS011;5466;55.898;14.094;2023-12-20T10:03:35;2.97;;;1.50;;
10825;SDS011;5466;55.898;14.094;2023-12-20T10:05:40;4.70;;;1.67;;
10825;SDS011;5466;55.898;14.094;2023-12-20T10:07:43;5.00;;;2.17;;
10825;SDS011;5466;55.898;14.094;2023-12-20T10:09:45;2.08;;;1.70;;
10825;SDS011;5466;55.898;14.094;2023-12-20T10:11:47;3.70;;;1.60;;
10825;SDS011;5466;55.898;14.094;2023-12-20T10:13:47;1.92;;;1.55;;
10825;SDS011;5466;55.898;14.094;2023-12-20T10:15:49;3.13;;;1.50;;
10825;SDS011;5466;55.898;14.094;2023-12-20T10:17:50;3.40;;;1.63;;
10825;SDS011;5466;55.898;14.094;2023-12-20T10:19:51;3.97;;;1.60;;
10825;SDS011;5466;55.898;14.094;2023-12-20T10:21:52;3.10;;;1.20;;
10825;SDS011;5466;55.898;14.094;2023-12-20T10:23:56;4.38;;;1.20;;
10825;SDS011;5466;55.898;14.094;2023-12-20T10:25:58;2.10;;;1.45;;
10825;SDS011;5466;55.898;14.094;2023-12-20T10:28:11;5.47;;;1.55;;
10825;SDS011;5466;55.898;14.094;2023-12-20T10:30:14;3.72;;;2.22;;
10825;SDS011;5466;55.898;14.094;2023-12-20T10:32:24;5.80;;;1.27;;
10825;SDS011;5466;55.898;14.094;2023-12-20T10:34:26;5.90;;;1.98;;
10825;SDS011;5466;55.898;14.094;2023-12-20T10:36:28;3.45;;;1.88;;
10825;SDS011;5466;55.898;14.094;2023-12-20T10:38:30;3.78;;;1.35;;
10825;SDS011;5466;55.898;14.094;2023-12-20T10:40:34;4.35;;;1.70;;
10825;SDS011;5466;55.898;14.094;2023-12-20T10:42:38;4.07;;;1.50;;
10825;SDS011;5466;55.898;14.094;2023-12-20T10:44:40;3.63;;;1.60;;
10825;SDS011;5466;55.898;14.094;2023-12-20T10:46:41;2.03;;;1.45;;
10825;SDS011;5466;55.898;14.094;2023-12-20T10:48:49;2.08;;;1.60;;
10825;SDS011;5466;55.898;14.094;2023-12-20T10:50:54;4.53;;;1.67;;
10825;SDS011;5466;55.898;14.094;2023-12-20T10:52:56;7.05;;;2.05;;
10825;SDS011;5466;55.898;14.094;2023-12-20T10:54:57;3.20;;;1.80;;
10825;SDS011;5466;55.898;14.094;2023-12-20T10:56:58;4.13;;;1.95;;
10825;SDS011;5466;55.898;14.094;2023-12-20T10:59:00;5.45;;;2.17;;
10825;SDS011;5466;55.898;14.094;2023-12-20T11:01:04;4.30;;;1.75;;
10825;SDS011;5466;55.898;14.094;2023-12-20T11:03:05;2.65;;;1.77;;
10825;SDS011;5466;55.898;14.094;2023-12-20T11:07:43;4.82;;;1.73;;
10825;SDS011;5466;55.898;14.094;2023-12-20T11:09:54;6.05;;;1.95;;
10825;SDS011;5466;55.898;14.094;2023-12-20T11:14:51;1.45;;;1.33;;
10825;SDS011;5466;55.898;14.094;2023-12-20T11:17:07;2.85;;;1.30;;
10825;SDS011;5466;55.898;14.094;2023-12-20T11:19:09;5.03;;;1.70;;
10825;SDS011;5466;55.898;14.094;2023-12-20T11:21:13;2.90;;;1.30;;
10825;SDS011;5466;55.898;14.094;2023-12-20T11:23:15;2.47;;;1.33;;
10825;SDS011;5466;55.898;14.094;2023-12-20T11:25:16;2.63;;;1.48;;
10825;SDS011;5466;55.898;14.094;2023-12-20T11:27:17;3.15;;;1.42;;
10825;SDS011;5466;55.898;14.094;2023-12-20T11:29:32;4.57;;;1.55;;
10825;SDS011;5466;55.898;14.094;2023-12-20T11:31:39;4.75;;;1.73;;
10825;SDS011;5466;55.898;14.094;2023-12-20T11:33:41;3.45;;;1.60;;
10825;SDS011;5466;55.898;14.094;2023-12-20T11:35:42;5.55;;;1.70;;
10825;SDS011;5466;55.898;14.094;2023-12-20T11:37:43;4.88;;;1.70;;
10825;SDS011;5466;55.898;14.094;2023-12-20T11:39:56;5.45;;;1.75;;
10825;SDS011;5466;55.898;14.094;2023-12-20T11:42:09;2.92;;;1.35;;
10825;SDS011;5466;55.898;14.094;2023-12-20T11:44:10;6.03;;;1.98;;
10825;SDS011;5466;55.898;14.094;2023-12-20T11:46:11;1.25;;;1.15;;
10825;SDS011;5466;55.898;14.094;2023-12-20T11:48:12;3.55;;;2.08;;
10825;SDS011;5466;55.898;14.094;2023-12-20T11:50:14;5.53;;;1.90;;
10825;SDS011;5466;55.898;14.094;2023-12-20T11:52:14;5.68;;;1.67;;
10825;SDS011;5466;55.898;14.094;2023-12-20T11:54:15;6.25;;;2.00;;
10825;SDS011;5466;55.898;14.094;2023-12-20T11:56:16;5.85;;;1.50;;
10825;SDS011;5466;55.898;14.094;2023-12-20T11:58:17;3.30;;;1.55;;
10825;SDS011;5466;55.898;14.094;2023-12-20T12:00:18;3.28;;;1.48;;
10825;SDS011;5466;55.898;14.094;2023-12-20T12:02:19;3.42;;;1.30;;
10825;SDS011;5466;55.898;14.094;2023-12-20T12:04:20;5.45;;;1.88;;
10825;SDS011;5466;55.898;14.094;2023-12-20T12:06:21;3.33;;;1.88;;
10825;SDS011;5466;55.898;14.094;2023-12-20T12:08:21;4.57;;;1.95;;
10825;SDS011;5466;55.898;14.094;2023-12-20T12:10:22;5.55;;;2.00;;